createdAt,value
2019-04-30T00:01:01.013Z,100436.17
2019-04-30T00:03:36.674Z,100444.70
2019-04-30T00:06:07.646Z,100438.86
2019-04-30T00:08:39.246Z,100439.20
2019-04-30T00:11:10.814Z,100440.53
2019-04-30T00:13:42.404Z,100443.50
2019-04-30T00:16:15.368Z,100439.56
2019-04-30T00:18:57.038Z,100433.78
2019-04-30T00:21:18.965Z,100432.09
2019-04-30T00:23:49.360Z,100429.11
2019-04-30T00:26:20.036Z,100429.96
2019-04-30T00:28:51.120Z,100423.48
2019-04-30T00:31:23.802Z,100417.30
2019-04-30T00:33:57.862Z,100421.11
2019-04-30T00:36:33.460Z,100419.28
2019-04-30T00:38:58.606Z,100411.19
2019-04-30T00:41:30.329Z,100414.95
2019-04-30T00:44:01.199Z,100413.64
2019-04-30T00:46:31.642Z,100416.66
2019-04-30T00:49:09.318Z,100412.44
2019-04-30T00:51:35.473Z,100419.69
2019-04-30T00:54:06.338Z,100413.32
2019-04-30T00:56:37.205Z,100416.86
2019-04-30T00:59:10.463Z,100419.20
2019-04-30T01:01:58.495Z,100418.41
2019-04-30T01:04:36.029Z,100418.05
2019-04-30T01:07:08.643Z,100419.98
2019-04-30T01:09:39.551Z,100420.98
2019-04-30T01:12:11.432Z,100422.73
2019-04-30T01:14:41.922Z,100424.20
2019-04-30T01:17:12.512Z,100418.95
2019-04-30T01:19:46.028Z,100420.29
2019-04-30T01:22:21.536Z,100419.20
2019-04-30T01:24:49.673Z,100417.63
2019-04-30T01:27:20.841Z,100415.83
2019-04-30T01:29:51.278Z,100416.94
2019-04-30T01:32:21.730Z,100411.75
2019-04-30T01:34:54.034Z,100403.16
2019-04-30T01:37:28.739Z,100405.09
2019-04-30T01:39:58.808Z,100407.92
2019-04-30T01:42:29.954Z,100404.53
2019-04-30T01:45:00.690Z,100411.08
2019-04-30T01:47:32.965Z,100400.47
2019-04-30T01:50:05.008Z,100405.80
2019-04-30T01:52:54.042Z,100410.62
2019-04-30T01:56:03.042Z,100408.22
2019-04-30T01:58:49.495Z,100405.46
2019-04-30T02:01:22.274Z,100404.86
2019-04-30T02:03:52.706Z,100402.93
2019-04-30T02:06:23.451Z,100407.67
2019-04-30T02:08:53.943Z,100409.84
2019-04-30T02:11:24.727Z,100407.67
2019-04-30T02:13:55.336Z,100407.31
2019-04-30T02:16:25.838Z,100410.11
2019-04-30T02:18:56.277Z,100409.27
2019-04-30T02:21:27.055Z,100411.69
2019-04-30T02:23:58.859Z,100407.72
2019-04-30T02:26:29.899Z,100399.01
2019-04-30T02:29:00.650Z,100403.96
2019-04-30T02:31:31.527Z,100405.40
2019-04-30T02:34:22.093Z,100406.86
2019-04-30T02:37:01.938Z,100407.72
2019-04-30T02:39:32.369Z,100399.64
2019-04-30T02:42:04.586Z,100398.18
2019-04-30T02:44:36.650Z,100401.59
2019-04-30T02:47:10.248Z,100404.11
2019-04-30T02:49:43.067Z,100407.37
2019-04-30T02:52:15.408Z,100403.03
2019-04-30T02:54:49.999Z,100407.39
2019-04-30T02:57:23.379Z,100403.51
2019-04-30T03:00:12.273Z,100405.09
2019-04-30T03:02:43.108Z,100404.86
2019-04-30T03:05:14.611Z,100403.88
2019-04-30T03:07:45.859Z,100402.05
2019-04-30T03:10:16.469Z,100405.56
2019-04-30T03:12:47.053Z,100399.80
2019-04-30T03:15:19.494Z,100408.38
2019-04-30T03:18:05.230Z,100404.02
2019-04-30T03:20:59.869Z,100402.31
2019-04-30T03:23:29.687Z,100399.06
2019-04-30T03:26:00.218Z,100404.14
2019-04-30T03:28:30.756Z,100396.66
2019-04-30T03:31:04.496Z,100396.19
2019-04-30T03:33:33.550Z,100403.90
2019-04-30T03:36:04.142Z,100394.23
2019-04-30T03:38:34.607Z,100402.20
2019-04-30T03:41:05.045Z,100405.38
2019-04-30T03:43:36.017Z,100403.31
2019-04-30T03:46:06.452Z,100412.85
2019-04-30T03:48:39.401Z,100408.88
2019-04-30T03:51:10.647Z,100405.48
2019-04-30T03:53:42.757Z,100403.45
2019-04-30T03:56:13.343Z,100400.05
2019-04-30T03:58:43.819Z,100400.42
2019-04-30T04:01:23.948Z,100405.86
2019-04-30T04:04:12.182Z,100402.57
2019-04-30T04:06:49.045Z,100403.90
2019-04-30T04:09:23.809Z,100406.22
2019-04-30T04:11:54.599Z,100406.11
2019-04-30T04:14:25.713Z,100406.57
2019-04-30T04:16:56.765Z,100406.70
2019-04-30T04:19:29.255Z,100409.00
2019-04-30T04:22:00.467Z,100407.67
2019-04-30T04:24:32.408Z,100409.34
2019-04-30T04:27:02.914Z,100411.41
2019-04-30T04:29:33.374Z,100408.86
2019-04-30T04:32:04.381Z,100415.98
2019-04-30T04:34:35.588Z,100407.92
2019-04-30T04:37:06.430Z,100416.23
2019-04-30T04:39:38.920Z,100415.63
2019-04-30T04:42:10.116Z,100416.49
2019-04-30T04:44:40.865Z,100417.94
2019-04-30T04:47:12.077Z,100419.84
2019-04-30T04:49:42.686Z,100419.51
2019-04-30T04:52:13.130Z,100426.02
2019-04-30T04:54:44.611Z,100426.48
2019-04-30T04:57:19.544Z,100426.97
2019-04-30T04:59:49.998Z,100430.23
2019-04-30T05:02:54.831Z,100427.22
2019-04-30T05:05:25.278Z,100426.61
2019-04-30T05:07:56.323Z,100426.48
2019-04-30T05:10:29.173Z,100428.67
2019-04-30T05:12:59.739Z,100428.53
2019-04-30T05:15:30.326Z,100422.47
2019-04-30T05:18:00.815Z,100431.05
2019-04-30T05:20:31.258Z,100428.13
2019-04-30T05:23:01.800Z,100435.86
2019-04-30T05:25:32.566Z,100427.63
2019-04-30T05:28:03.438Z,100429.30
2019-04-30T05:30:34.198Z,100428.44
2019-04-30T05:33:04.687Z,100428.25
2019-04-30T05:35:35.131Z,100430.81
2019-04-30T05:38:05.573Z,100422.80
2019-04-30T05:40:36.397Z,100427.95
2019-04-30T05:43:09.027Z,100425.62
2019-04-30T05:45:39.108Z,100426.34
2019-04-30T05:48:09.820Z,100428.84
2019-04-30T05:50:40.268Z,100429.66
2019-04-30T05:53:10.708Z,100436.69
2019-04-30T05:55:41.534Z,100436.05
2019-04-30T05:58:12.395Z,100437.16
2019-04-30T06:00:43.244Z,100436.95
2019-04-30T06:03:25.352Z,100436.91
2019-04-30T06:05:47.159Z,100442.06
2019-04-30T06:08:20.013Z,100444.13
2019-04-30T06:11:04.715Z,100445.36
2019-04-30T06:13:58.730Z,100446.94
2019-04-30T06:16:29.931Z,100448.52
2019-04-30T06:19:00.737Z,100451.20
2019-04-30T06:21:31.332Z,100452.53
2019-04-30T06:24:02.244Z,100450.86
2019-04-30T06:26:32.690Z,100453.68
2019-04-30T06:29:03.875Z,100457.87
2019-04-30T06:31:37.472Z,100460.64
2019-04-30T06:34:06.552Z,100459.16
2019-04-30T06:36:50.663Z,100461.66
2019-04-30T06:39:11.647Z,100458.53
2019-04-30T06:41:42.258Z,100458.30
2019-04-30T06:44:12.884Z,100459.72
2019-04-30T06:46:43.935Z,100463.80
2019-04-30T06:49:14.865Z,100458.70
2019-04-30T06:51:45.826Z,100462.61
2019-04-30T06:54:19.036Z,100463.89
2019-04-30T06:56:48.745Z,100462.27
2019-04-30T06:59:20.345Z,100467.87
2019-04-30T07:01:50.803Z,100462.20
2019-04-30T07:04:21.242Z,100463.78
2019-04-30T07:06:51.738Z,100470.04
2019-04-30T07:09:51.474Z,100459.19
2019-04-30T07:12:30.609Z,100465.58
2019-04-30T07:15:02.795Z,100463.74
2019-04-30T07:17:33.570Z,100458.67
2019-04-30T07:20:04.327Z,100464.02
2019-04-30T07:22:39.730Z,100472.23
2019-04-30T07:25:09.433Z,100466.68
2019-04-30T07:27:40.307Z,100463.34
2019-04-30T07:30:11.210Z,100465.86
2019-04-30T07:32:41.652Z,100470.48
2019-04-30T07:35:12.407Z,100465.19
2019-04-30T07:37:42.867Z,100465.69
2019-04-30T07:40:13.744Z,100466.23
2019-04-30T07:42:45.148Z,100469.71
2019-04-30T07:45:15.627Z,100463.85
2019-04-30T07:47:46.082Z,100465.91
2019-04-30T07:50:18.075Z,100465.06
2019-04-30T07:53:01.636Z,100469.15
2019-04-30T07:55:21.386Z,100465.94
2019-04-30T07:57:51.829Z,100460.95
2019-04-30T08:00:22.603Z,100459.81
2019-04-30T08:03:03.282Z,100458.80
2019-04-30T08:05:40.188Z,100464.95
2019-04-30T08:08:21.023Z,100461.16
2019-04-30T08:10:43.060Z,100459.22
2019-04-30T08:13:15.093Z,100465.41
2019-04-30T08:15:46.168Z,100462.62
2019-04-30T08:18:18.402Z,100460.52
2019-04-30T08:20:49.059Z,100466.81
2019-04-30T08:23:33.051Z,100459.23
2019-04-30T08:25:52.488Z,100465.48
2019-04-30T08:28:22.991Z,100465.98
2019-04-30T08:30:53.496Z,100463.28
2019-04-30T08:33:24.364Z,100466.03
2019-04-30T08:35:55.263Z,100459.19
2019-04-30T08:38:25.771Z,100456.20
2019-04-30T08:40:58.779Z,100452.03
2019-04-30T08:43:29.269Z,100457.80
2019-04-30T08:46:00.194Z,100463.87
2019-04-30T08:48:45.346Z,100453.60
2019-04-30T08:51:03.116Z,100462.87
2019-04-30T08:53:34.253Z,100458.51
2019-04-30T08:56:04.947Z,100460.37
2019-04-30T08:58:35.747Z,100456.86
2019-04-30T09:01:06.253Z,100454.00
2019-04-30T09:03:36.704Z,100452.48
2019-04-30T09:06:19.853Z,100457.88
2019-04-30T09:08:53.531Z,100462.91
2019-04-30T09:11:30.200Z,100450.82
2019-04-30T09:13:56.186Z,100450.50
2019-04-30T09:16:26.702Z,100451.81
2019-04-30T09:18:57.247Z,100439.89
2019-04-30T09:21:29.843Z,100449.16
2019-04-30T09:24:00.649Z,100443.23
2019-04-30T09:26:31.264Z,100448.80
2019-04-30T09:29:02.070Z,100451.80
2019-04-30T09:31:32.514Z,100447.73
2019-04-30T09:34:14.172Z,100447.57
2019-04-30T09:36:35.908Z,100452.40
2019-04-30T09:39:08.937Z,100451.27
2019-04-30T09:41:41.187Z,100455.95
2019-04-30T09:44:12.186Z,100454.11
2019-04-30T09:46:42.898Z,100454.11
2019-04-30T09:49:13.339Z,100440.97
2019-04-30T09:51:43.881Z,100454.23
2019-04-30T09:54:14.600Z,100447.62
2019-04-30T09:56:45.487Z,100445.52
2019-04-30T09:59:15.992Z,100441.50
2019-04-30T10:01:46.488Z,100443.31
2019-04-30T10:04:19.276Z,100437.37
2019-04-30T10:06:50.126Z,100433.87
2019-04-30T10:09:21.217Z,100428.77
2019-04-30T10:12:04.047Z,100431.39
2019-04-30T10:14:35.380Z,100422.92
2019-04-30T10:17:27.747Z,100421.48
2019-04-30T10:19:58.201Z,100417.13
2019-04-30T10:22:28.668Z,100418.18
2019-04-30T10:24:59.741Z,100417.61
2019-04-30T10:27:30.330Z,100419.15
2019-04-30T10:30:01.563Z,100412.54
2019-04-30T10:32:32.415Z,100412.41
2019-04-30T10:35:03.200Z,100410.36
2019-04-30T10:37:33.818Z,100395.84
2019-04-30T10:40:04.539Z,100407.23
2019-04-30T10:42:35.079Z,100396.35
2019-04-30T10:45:09.738Z,100396.33
2019-04-30T10:47:41.630Z,100396.91
2019-04-30T10:50:12.783Z,100390.56
2019-04-30T10:52:43.240Z,100388.29
2019-04-30T10:55:14.622Z,100376.12
2019-04-30T10:57:45.462Z,100396.85
2019-04-30T11:00:18.589Z,100392.72
2019-04-30T11:02:49.714Z,100389.05
2019-04-30T11:05:21.162Z,100389.02
2019-04-30T11:07:53.011Z,100384.43
2019-04-30T11:10:25.234Z,100385.70
2019-04-30T11:12:56.545Z,100386.26
2019-04-30T11:15:26.998Z,100378.35
2019-04-30T11:17:59.665Z,100377.19
2019-04-30T11:20:30.637Z,100374.38
2019-04-30T11:23:13.275Z,100368.25
2019-04-30T11:25:34.633Z,100372.74
2019-04-30T11:28:06.638Z,100371.27
2019-04-30T11:30:39.277Z,100355.18
2019-04-30T11:33:10.281Z,100353.55
2019-04-30T11:35:41.805Z,100353.55
2019-04-30T11:38:12.740Z,100348.81
2019-04-30T11:40:43.187Z,100341.40
2019-04-30T11:43:13.632Z,100343.36
2019-04-30T11:46:46.654Z,100340.16
2019-04-30T11:49:17.099Z,100331.64
2019-04-30T11:51:47.542Z,100331.05
2019-04-30T11:54:18.702Z,100332.49
2019-04-30T11:56:50.460Z,100325.55
2019-04-30T11:59:21.134Z,100328.64
2019-04-30T12:01:53.805Z,100328.44
2019-04-30T12:04:24.415Z,100325.11
2019-04-30T12:06:56.798Z,100321.39
2019-04-30T12:09:46.223Z,100321.91
2019-04-30T12:12:16.664Z,100315.75
2019-04-30T12:14:47.108Z,100313.55
2019-04-30T12:17:17.607Z,100309.20
2019-04-30T12:19:48.837Z,100301.17
2019-04-30T12:22:20.317Z,100294.78
2019-04-30T12:25:02.337Z,100297.81
2019-04-30T12:27:23.421Z,100293.43
2019-04-30T12:29:53.869Z,100293.22
2019-04-30T12:32:24.749Z,100293.77
2019-04-30T12:34:55.372Z,100288.20
2019-04-30T12:37:26.326Z,100299.23
2019-04-30T12:39:56.829Z,100303.31
2019-04-30T12:42:28.668Z,100304.89
2019-04-30T12:44:59.634Z,100296.12
2019-04-30T12:47:31.791Z,100293.96
2019-04-30T12:50:24.193Z,100300.28
2019-04-30T12:52:59.539Z,100297.84
2019-04-30T12:55:49.099Z,100294.47
2019-04-30T12:58:20.707Z,100295.98
2019-04-30T13:00:51.663Z,100292.19
2019-04-30T13:03:22.106Z,100283.69
2019-04-30T13:05:53.133Z,100283.81
2019-04-30T13:08:24.980Z,100282.97
2019-04-30T13:10:56.406Z,100276.83
2019-04-30T13:13:31.417Z,100273.39
2019-04-30T13:16:00.627Z,100284.89
2019-04-30T13:18:31.070Z,100280.11
2019-04-30T13:21:01.660Z,100272.92
2019-04-30T13:23:32.095Z,100263.48
2019-04-30T13:26:03.448Z,100259.09
2019-04-30T13:28:44.291Z,100263.63
2019-04-30T13:31:15.139Z,100258.92
2019-04-30T13:33:51.260Z,100243.24
2019-04-30T13:36:22.959Z,100238.95
2019-04-30T13:39:19.525Z,100237.05
2019-04-30T13:41:55.552Z,100239.25
2019-04-30T13:44:29.500Z,100226.80
2019-04-30T13:46:59.919Z,100229.06
2019-04-30T13:49:30.373Z,100226.63
2019-04-30T13:52:01.205Z,100222.45
2019-04-30T13:54:32.024Z,100225.86
2019-04-30T13:57:03.174Z,100227.03
2019-04-30T13:59:34.388Z,100221.69
2019-04-30T14:02:05.079Z,100222.83
2019-04-30T14:04:43.140Z,100226.39
2019-04-30T14:07:27.780Z,100223.02
2019-04-30T14:09:58.620Z,100228.33
2019-04-30T14:12:30.991Z,100220.23
2019-04-30T14:15:01.440Z,100214.22
2019-04-30T14:17:32.312Z,100212.83
2019-04-30T14:20:03.169Z,100214.58
2019-04-30T14:22:33.623Z,100204.03
2019-04-30T14:25:05.083Z,100201.48
2019-04-30T14:27:35.603Z,100200.44
2019-04-30T14:30:06.641Z,100207.96
2019-04-30T14:32:37.167Z,100205.84
2019-04-30T14:35:09.126Z,100204.48
2019-04-30T14:37:40.099Z,100203.34
2019-04-30T14:40:12.906Z,100203.28
2019-04-30T14:42:49.497Z,100199.72
2019-04-30T14:45:28.347Z,100201.83
2019-04-30T14:48:05.150Z,100202.27
2019-04-30T14:50:38.547Z,100192.63
2019-04-30T14:53:25.291Z,100194.12
2019-04-30T14:56:19.684Z,100193.67
2019-04-30T14:59:28.984Z,100187.44
2019-04-30T15:02:11.347Z,100191.10
2019-04-30T15:04:42.653Z,100184.64
2019-04-30T15:07:14.212Z,100186.37
2019-04-30T15:09:44.708Z,100170.83
2019-04-30T15:12:15.927Z,100175.41
2019-04-30T15:14:46.391Z,100166.93
2019-04-30T15:17:17.230Z,100167.37
2019-04-30T15:19:49.409Z,100164.78
2019-04-30T15:22:21.237Z,100161.86
2019-04-30T15:24:52.103Z,100165.62
2019-04-30T15:27:22.903Z,100158.44
2019-04-30T15:29:57.046Z,100160.25
2019-04-30T15:32:25.916Z,100147.22
2019-04-30T15:34:56.367Z,100160.34
2019-04-30T15:37:28.656Z,100156.50
2019-04-30T15:39:59.344Z,100150.25
2019-04-30T15:42:29.800Z,100147.33
2019-04-30T15:45:00.621Z,100149.84
2019-04-30T15:47:31.117Z,100146.09
2019-04-30T15:50:02.340Z,100151.92
2019-04-30T15:52:33.172Z,100141.09
2019-04-30T15:55:03.686Z,100143.55
2019-04-30T15:57:34.196Z,100144.59
2019-04-30T16:00:05.403Z,100137.64
2019-04-30T16:03:00.111Z,100133.14
2019-04-30T16:05:35.550Z,100137.42
2019-04-30T16:08:31.759Z,100131.86
2019-04-30T16:11:24.523Z,100129.58
2019-04-30T16:14:20.672Z,100130.83
2019-04-30T16:17:07.885Z,100122.48
2019-04-30T16:19:38.547Z,100130.72
2019-04-30T16:22:09.167Z,100122.30
2019-04-30T16:24:39.627Z,100117.92
2019-04-30T16:27:10.143Z,100115.61
2019-04-30T16:29:40.847Z,100114.07
2019-04-30T16:32:11.772Z,100109.48
2019-04-30T16:34:42.224Z,100112.30
2019-04-30T16:37:13.075Z,100118.64
2019-04-30T16:39:43.607Z,100109.27
2019-04-30T16:42:14.063Z,100109.38
2019-04-30T16:44:44.512Z,100105.84
2019-04-30T16:47:17.045Z,100104.16
2019-04-30T16:49:49.278Z,100111.86
2019-04-30T16:52:19.401Z,100104.27
2019-04-30T16:54:49.921Z,100105.08
2019-04-30T16:57:21.090Z,100103.08
2019-04-30T16:59:53.421Z,100101.22
2019-04-30T17:02:25.935Z,100101.32
2019-04-30T17:05:01.338Z,100096.19
2019-04-30T17:07:38.707Z,100092.86
2019-04-30T17:10:26.031Z,100088.03
2019-04-30T17:13:15.750Z,100094.88
2019-04-30T17:15:46.337Z,100094.37
2019-04-30T17:18:18.923Z,100093.41
2019-04-30T17:20:49.308Z,100094.23
2019-04-30T17:23:19.811Z,100100.12
2019-04-30T17:25:50.281Z,100092.31
2019-04-30T17:28:21.095Z,100094.34
2019-04-30T17:30:51.615Z,100094.12
2019-04-30T17:33:22.064Z,100103.88
2019-04-30T17:35:52.527Z,100103.88
2019-04-30T17:38:23.083Z,100098.67
2019-04-30T17:40:54.298Z,100115.81
2019-04-30T17:43:24.774Z,100096.61
2019-04-30T17:45:55.275Z,100099.97
2019-04-30T17:48:26.070Z,100103.49
2019-04-30T17:50:56.903Z,100098.95
2019-04-30T17:53:28.774Z,100097.94
2019-04-30T17:56:00.019Z,100093.92
2019-04-30T17:58:31.190Z,100093.92
2019-04-30T18:01:03.412Z,100096.19
2019-04-30T18:03:33.972Z,100100.03
2019-04-30T18:06:04.561Z,100101.71
2019-04-30T18:08:36.356Z,100101.71
2019-04-30T18:11:07.478Z,100102.53
2019-04-30T18:13:38.211Z,100106.62
2019-04-30T18:16:09.013Z,100104.54
2019-04-30T18:18:51.299Z,100101.87
2019-04-30T18:21:48.615Z,100115.22
2019-04-30T18:24:53.255Z,100111.11
2019-04-30T18:27:46.005Z,100109.14
2019-04-30T18:30:13.116Z,100108.76
2019-04-30T18:32:44.027Z,100115.45
2019-04-30T18:35:14.507Z,100115.95
2019-04-30T18:37:44.962Z,100120.70
2019-04-30T18:40:15.714Z,100125.21
2019-04-30T18:42:46.548Z,100121.95
2019-04-30T18:45:19.295Z,100117.81
2019-04-30T18:47:49.902Z,100125.28
2019-04-30T18:50:20.424Z,100127.72
2019-04-30T18:52:53.131Z,100128.28
2019-04-30T18:55:23.640Z,100133.31
2019-04-30T18:57:56.898Z,100131.56
2019-04-30T19:00:32.428Z,100131.48
2019-04-30T19:03:04.168Z,100134.81
2019-04-30T19:05:39.331Z,100133.90
2019-04-30T19:08:19.439Z,100140.45
2019-04-30T19:11:24.369Z,100144.02
2019-04-30T19:14:16.838Z,100149.09
2019-04-30T19:17:21.947Z,100148.81
2019-04-30T19:20:04.626Z,100153.89
2019-04-30T19:22:35.138Z,100153.24
2019-04-30T19:25:06.397Z,100163.97
2019-04-30T19:27:37.363Z,100161.28
2019-04-30T19:30:09.343Z,100159.67
2019-04-30T19:32:40.503Z,100162.80
2019-04-30T19:35:11.470Z,100159.74
2019-04-30T19:37:41.995Z,100159.31
2019-04-30T19:40:12.541Z,100162.93
2019-04-30T19:42:42.987Z,100155.09
2019-04-30T19:45:13.587Z,100160.19
2019-04-30T19:47:44.375Z,100157.30
2019-04-30T19:50:15.491Z,100156.53
2019-04-30T19:52:46.767Z,100154.51
2019-04-30T19:55:20.476Z,100148.50
2019-04-30T19:57:51.137Z,100154.59
2019-04-30T20:00:21.975Z,100157.72
2019-04-30T20:02:57.154Z,100151.42
2019-04-30T20:05:28.677Z,100158.14
2019-04-30T20:07:59.397Z,100149.51
2019-04-30T20:10:30.215Z,100150.26
2019-04-30T20:13:02.012Z,100148.13
2019-04-30T20:15:32.860Z,100157.25
2019-04-30T20:18:05.939Z,100151.56
2019-04-30T20:20:40.185Z,100154.47
2019-04-30T20:23:15.753Z,100154.23
2019-04-30T20:25:46.649Z,100150.38
2019-04-30T20:28:17.962Z,100154.59
2019-04-30T20:30:49.049Z,100153.43
2019-04-30T20:33:19.939Z,100154.28
2019-04-30T20:35:50.400Z,100155.75
2019-04-30T20:38:46.283Z,100153.97
2019-04-30T20:41:18.656Z,100158.73
2019-04-30T20:43:49.419Z,100158.42
2019-04-30T20:46:32.057Z,100153.73
2019-04-30T20:48:54.439Z,100151.74
2019-04-30T20:51:24.887Z,100151.94
2019-04-30T20:53:56.129Z,100159.88
2019-04-30T20:56:28.980Z,100160.75
2019-04-30T20:59:05.274Z,100159.94
2019-04-30T21:01:32.257Z,100157.55
2019-04-30T21:04:02.714Z,100159.94
2019-04-30T21:06:33.345Z,100157.09
2019-04-30T21:09:04.839Z,100157.25
2019-04-30T21:11:35.743Z,100159.95
2019-04-30T21:14:08.953Z,100155.75
2019-04-30T21:16:39.576Z,100154.89
2019-04-30T21:19:10.435Z,100155.60
2019-04-30T21:21:40.899Z,100158.61
2019-04-30T21:24:11.723Z,100151.91
2019-04-30T21:26:42.593Z,100154.94
2019-04-30T21:29:15.828Z,100149.25
2019-04-30T21:32:03.421Z,100145.69
2019-04-30T21:34:42.114Z,100145.54
2019-04-30T21:37:12.937Z,100152.61
2019-04-30T21:39:43.775Z,100150.58
2019-04-30T21:42:14.280Z,100142.19
2019-04-30T21:44:45.146Z,100140.86
2019-04-30T21:47:15.660Z,100144.03
2019-04-30T21:49:46.112Z,100140.55
2019-04-30T21:52:16.612Z,100136.16
2019-04-30T21:54:48.698Z,100136.83
2019-04-30T21:57:19.196Z,100143.88
2019-04-30T21:59:49.682Z,100136.17
2019-04-30T22:02:20.815Z,100141.34
2019-04-30T22:04:51.644Z,100141.70
2019-04-30T22:07:22.221Z,100145.73
2019-04-30T22:09:52.667Z,100142.39
2019-04-30T22:12:23.380Z,100147.78
2019-04-30T22:14:53.878Z,100149.76
2019-04-30T22:17:25.476Z,100140.05
2019-04-30T22:19:55.923Z,100147.61
2019-04-30T22:22:26.759Z,100142.73
2019-04-30T22:24:59.606Z,100139.56
2019-04-30T22:27:29.693Z,100138.72
2019-04-30T22:30:00.355Z,100140.23
2019-04-30T22:32:30.805Z,100137.72
2019-04-30T22:35:20.249Z,100135.05
2019-04-30T22:37:53.610Z,100140.06
2019-04-30T22:40:24.379Z,100135.53
2019-04-30T22:42:55.255Z,100141.38
2019-04-30T22:45:33.816Z,100136.19
2019-04-30T22:48:04.315Z,100136.53
2019-04-30T22:50:35.873Z,100135.53
2019-04-30T22:53:06.659Z,100131.99
2019-04-30T22:55:37.907Z,100133.34
2019-04-30T22:58:08.766Z,100129.48
2019-04-30T23:00:44.868Z,100124.63
2019-04-30T23:03:23.935Z,100127.48
2019-04-30T23:05:54.444Z,100131.52
2019-04-30T23:08:24.894Z,100133.17
2019-04-30T23:10:55.728Z,100128.66
2019-04-30T23:13:26.232Z,100129.48
2019-04-30T23:15:57.514Z,100125.47
2019-04-30T23:18:28.769Z,100127.15
2019-04-30T23:20:59.736Z,100118.76
2019-04-30T23:23:30.544Z,100118.76
2019-04-30T23:26:00.985Z,100117.42
2019-04-30T23:28:31.797Z,100118.77
2019-04-30T23:31:02.249Z,100116.56
2019-04-30T23:33:32.688Z,100113.53
2019-04-30T23:36:03.600Z,100112.53
2019-04-30T23:38:34.047Z,100115.73
2019-04-30T23:41:04.588Z,100110.86
2019-04-30T23:43:35.375Z,100108.52
2019-04-30T23:46:06.192Z,100103.16
2019-04-30T23:48:36.726Z,100105.83
2019-04-30T23:51:07.225Z,100098.61
2019-04-30T23:53:38.035Z,100100.64
2019-04-30T23:56:08.475Z,100096.93
2019-04-30T23:58:39.303Z,100102.30
